createdAt,value
2022-08-29T00:02:12.935Z,95366.09
2022-08-29T00:04:41.840Z,95360.86
2022-08-29T00:07:12.004Z,95364.56
2022-08-29T00:09:40.652Z,95366.89
2022-08-29T00:12:09.668Z,95361.82
2022-08-29T00:14:38.770Z,95363.45
2022-08-29T00:17:07.384Z,95367.33
2022-08-29T00:19:36.207Z,95367.48
2022-08-29T00:22:05.358Z,95360.58
2022-08-29T00:24:37.126Z,95359.75
2022-08-29T00:27:06.244Z,95354.34
2022-08-29T00:29:35.651Z,95357.55
2022-08-29T00:32:05.499Z,95361.18
2022-08-29T00:34:34.316Z,95355.70
2022-08-29T00:37:03.038Z,95360.26
2022-08-29T00:39:32.882Z,95360.23
2022-08-29T00:42:01.751Z,95357.36
2022-08-29T00:44:32.068Z,95360.06
2022-08-29T00:47:07.945Z,95354.39
2022-08-29T00:49:41.245Z,95361.91
2022-08-29T00:52:23.251Z,95363.69
2022-08-29T00:55:02.590Z,95359.64
2022-08-29T00:57:33.790Z,95353.80
2022-08-29T01:00:09.720Z,95352.41
2022-08-29T01:02:40.932Z,95349.09
2022-08-29T01:05:20.090Z,95358.41
2022-08-29T01:07:54.954Z,95353.63
2022-08-29T01:10:44.618Z,95355.58
2022-08-29T01:13:16.077Z,95349.73
2022-08-29T01:15:48.239Z,95348.44
2022-08-29T01:18:19.201Z,95338.59
2022-08-29T01:21:02.545Z,95350.59
2022-08-29T01:23:59.661Z,95353.80
2022-08-29T01:26:32.341Z,95354.98
2022-08-29T01:29:01.570Z,95355.25
2022-08-29T01:31:55.738Z,95353.99
2022-08-29T01:34:06.908Z,95357.00
2022-08-29T01:36:56.679Z,95355.31
2022-08-29T01:39:28.548Z,95356.00
2022-08-29T01:41:58.866Z,95354.81
2022-08-29T01:44:27.656Z,95356.34
2022-08-29T01:47:02.704Z,95354.98
2022-08-29T01:49:31.283Z,95352.27
2022-08-29T01:52:00.133Z,95354.22
2022-08-29T01:54:31.944Z,95357.16
2022-08-29T01:57:01.623Z,95357.84
2022-08-29T01:59:35.148Z,95358.84
2022-08-29T02:02:17.248Z,95360.94
2022-08-29T02:04:48.430Z,95361.42
2022-08-29T02:07:20.139Z,95370.78
2022-08-29T02:09:49.624Z,95378.81
2022-08-29T02:12:18.934Z,95379.23
2022-08-29T02:14:47.642Z,95373.27
2022-08-29T02:17:17.999Z,95374.63
2022-08-29T02:19:48.226Z,95368.84
2022-08-29T02:22:16.927Z,95359.61
2022-08-29T02:24:45.987Z,95378.32
2022-08-29T02:27:14.620Z,95372.47
2022-08-29T02:29:44.196Z,95377.58
2022-08-29T02:32:15.285Z,95382.08
2022-08-29T02:34:47.889Z,95374.45
2022-08-29T02:37:15.645Z,95374.77
2022-08-29T02:39:44.449Z,95370.38
2022-08-29T02:42:13.277Z,95368.02
2022-08-29T02:44:41.919Z,95380.73
2022-08-29T02:47:10.574Z,95377.01
2022-08-29T02:49:39.754Z,95370.23
2022-08-29T02:52:11.328Z,95377.86
2022-08-29T02:54:40.358Z,95376.25
2022-08-29T02:57:09.054Z,95378.06
2022-08-29T02:59:37.688Z,95381.50
2022-08-29T03:02:07.699Z,95382.92
2022-08-29T03:04:36.822Z,95389.34
2022-08-29T03:07:05.615Z,95391.91
2022-08-29T03:09:34.279Z,95395.42
2022-08-29T03:12:03.055Z,95399.91
2022-08-29T03:14:31.741Z,95403.22
2022-08-29T03:17:00.450Z,95342.59
2022-08-29T03:19:29.165Z,95402.03
2022-08-29T03:21:57.820Z,95408.28
2022-08-29T03:24:27.186Z,95407.58
2022-08-29T03:26:58.779Z,95407.41
2022-08-29T03:29:27.719Z,95401.12
2022-08-29T03:31:58.044Z,95407.88
2022-08-29T03:34:28.350Z,95406.66
2022-08-29T03:36:57.124Z,95418.00
2022-08-29T03:39:25.892Z,95410.73
2022-08-29T03:41:54.926Z,95414.95
2022-08-29T03:44:24.428Z,95407.10
2022-08-29T03:46:56.700Z,95412.30
2022-08-29T03:49:25.413Z,95417.03
2022-08-29T03:51:54.208Z,95412.94
2022-08-29T03:54:23.009Z,95415.10
2022-08-29T03:56:51.823Z,95414.63
2022-08-29T03:59:21.184Z,95422.77
2022-08-29T04:01:50.359Z,95421.69
2022-08-29T04:04:41.270Z,95417.97
2022-08-29T04:07:14.387Z,95423.03
2022-08-29T04:09:43.519Z,95419.59
2022-08-29T04:12:14.077Z,95415.26
2022-08-29T04:14:42.973Z,95418.55
2022-08-29T04:17:13.157Z,95426.34
2022-08-29T04:19:41.935Z,95428.55
2022-08-29T04:22:10.512Z,95433.15
2022-08-29T04:24:39.162Z,95429.44
2022-08-29T04:27:08.657Z,95431.45
2022-08-29T04:29:38.298Z,95440.16
2022-08-29T04:32:07.202Z,95442.86
2022-08-29T04:34:35.908Z,95443.37
2022-08-29T04:37:04.663Z,95446.10
2022-08-29T04:39:33.370Z,95445.65
2022-08-29T04:42:02.043Z,95449.50
2022-08-29T04:44:30.733Z,95447.00
2022-08-29T04:46:59.831Z,95444.58
2022-08-29T04:49:28.629Z,95451.52
2022-08-29T04:51:57.402Z,95447.69
2022-08-29T04:54:26.112Z,95452.95
2022-08-29T04:56:57.636Z,95458.63
2022-08-29T04:59:25.833Z,95462.03
2022-08-29T05:01:55.932Z,95471.93
2022-08-29T05:04:25.401Z,95467.70
2022-08-29T05:07:21.152Z,95466.84
2022-08-29T05:09:59.838Z,95464.30
2022-08-29T05:12:31.080Z,95475.14
2022-08-29T05:15:00.453Z,95476.00
2022-08-29T05:17:29.296Z,95473.63
2022-08-29T05:19:57.954Z,95476.65
2022-08-29T05:22:26.837Z,95475.53
2022-08-29T05:24:57.159Z,95475.27
2022-08-29T05:27:25.906Z,95472.16
2022-08-29T05:29:55.061Z,95477.14
2022-08-29T05:32:24.158Z,95481.71
2022-08-29T05:34:52.876Z,95483.86
2022-08-29T05:37:22.909Z,95489.64
2022-08-29T05:39:55.877Z,95477.38
2022-08-29T05:42:24.830Z,95495.78
2022-08-29T05:44:55.090Z,95495.22
2022-08-29T05:47:25.804Z,95495.61
2022-08-29T05:49:55.819Z,95489.63
2022-08-29T05:52:24.680Z,95489.91
2022-08-29T05:54:53.497Z,95495.44
2022-08-29T05:57:25.245Z,95493.02
2022-08-29T05:59:55.162Z,95500.64
2022-08-29T06:02:25.541Z,95496.64
2022-08-29T06:04:54.595Z,95496.72
2022-08-29T06:07:23.492Z,95503.38
2022-08-29T06:09:54.961Z,95497.05
2022-08-29T06:12:26.892Z,95490.66
2022-08-29T06:14:55.768Z,95505.70
2022-08-29T06:17:26.360Z,95502.98
2022-08-29T06:19:55.410Z,95475.58
2022-08-29T06:22:24.395Z,95503.70
2022-08-29T06:24:58.459Z,95504.52
2022-08-29T06:27:30.323Z,95506.37
2022-08-29T06:30:02.285Z,95504.73
2022-08-29T06:32:34.159Z,95495.73
2022-08-29T06:35:08.068Z,95498.77
2022-08-29T06:37:48.182Z,95500.22
2022-08-29T06:40:18.192Z,95498.82
2022-08-29T06:43:02.465Z,95504.41
2022-08-29T06:45:31.791Z,95496.05
2022-08-29T06:48:06.122Z,95501.54
2022-08-29T06:50:44.886Z,95501.95
2022-08-29T06:53:26.968Z,95506.59
2022-08-29T06:55:45.693Z,95504.83
2022-08-29T06:58:24.522Z,95507.80
2022-08-29T07:03:47.130Z,95515.67
2022-08-29T07:06:50.559Z,95516.48
2022-08-29T07:12:16.626Z,95515.55
2022-08-29T07:15:06.266Z,95511.63
2022-08-29T07:17:50.425Z,95514.84
2022-08-29T07:20:24.150Z,95508.30
2022-08-29T07:22:53.758Z,95510.20
2022-08-29T07:25:29.419Z,95514.52
2022-08-29T07:28:45.657Z,95508.71
2022-08-29T07:31:11.737Z,95514.29
2022-08-29T07:33:40.925Z,95519.66
2022-08-29T07:36:09.897Z,95524.06
2022-08-29T07:38:48.078Z,95528.34
2022-08-29T07:41:20.630Z,95522.39
2022-08-29T07:43:52.809Z,95534.55
2022-08-29T07:46:27.715Z,95529.38
2022-08-29T07:49:03.333Z,95525.77
2022-08-29T07:51:49.188Z,95525.27
2022-08-29T07:54:21.342Z,95450.08
2022-08-29T07:57:02.977Z,95519.90
2022-08-29T07:59:58.974Z,95521.08
2022-08-29T08:02:42.944Z,95522.02
2022-08-29T08:05:30.024Z,95509.44
2022-08-29T08:08:05.150Z,95502.95
2022-08-29T08:13:27.014Z,95509.11
2022-08-29T08:15:55.889Z,95502.63
2022-08-29T08:18:31.953Z,95501.61
2022-08-29T08:21:25.508Z,95503.24
2022-08-29T08:23:54.889Z,95504.84
2022-08-29T08:26:26.760Z,95499.97
2022-08-29T08:29:00.047Z,95500.82
2022-08-29T08:31:30.974Z,95491.86
2022-08-29T08:33:59.866Z,95492.64
2022-08-29T08:36:40.254Z,95496.98
2022-08-29T08:39:06.111Z,95497.13
2022-08-29T08:41:46.974Z,95500.22
2022-08-29T08:44:20.615Z,95491.36
2022-08-29T08:46:52.153Z,95494.56
2022-08-29T08:49:48.239Z,95492.96
2022-08-29T08:52:27.677Z,95491.38
2022-08-29T08:55:02.259Z,95485.33
2022-08-29T08:57:33.882Z,95484.08
2022-08-29T09:00:04.246Z,95479.13
2022-08-29T09:02:50.904Z,95480.44
2022-08-29T09:05:31.582Z,95483.13
2022-08-29T09:08:27.245Z,95486.48
2022-08-29T09:11:04.824Z,95478.33
2022-08-29T09:13:59.476Z,95479.27
2022-08-29T09:16:50.773Z,95476.52
2022-08-29T09:19:19.478Z,95477.83
2022-08-29T09:21:56.282Z,95479.04
2022-08-29T09:24:46.563Z,95479.67
2022-08-29T09:27:33.930Z,95476.57
2022-08-29T09:30:26.171Z,95457.56
2022-08-29T09:33:03.481Z,95471.83
2022-08-29T09:35:41.339Z,95465.23
2022-08-29T09:38:29.242Z,95478.80
2022-08-29T09:41:01.446Z,95466.67
2022-08-29T09:43:41.970Z,95461.59
2022-08-29T09:46:20.257Z,95458.26
2022-08-29T09:48:52.325Z,95455.68
2022-08-29T09:51:35.366Z,95455.70
2022-08-29T09:57:23.742Z,95453.31
2022-08-29T10:00:16.449Z,95446.86
2022-08-29T10:02:49.015Z,95451.41
2022-08-29T10:05:45.672Z,95449.42
2022-08-29T10:08:33.775Z,95447.69
2022-08-29T10:11:05.440Z,95446.02
2022-08-29T10:13:57.843Z,95420.45
2022-08-29T10:16:38.609Z,95439.52
2022-08-29T10:19:13.297Z,95429.52
2022-08-29T10:21:50.942Z,95431.64
2022-08-29T10:24:51.284Z,95418.75
2022-08-29T10:27:34.796Z,95416.32
2022-08-29T10:30:15.164Z,95412.84
2022-08-29T10:32:56.072Z,95410.06
2022-08-29T10:35:43.565Z,95418.25
2022-08-29T10:38:33.638Z,95409.58
2022-08-29T10:41:13.424Z,95410.48
2022-08-29T10:43:54.030Z,95396.84
2022-08-29T10:46:47.609Z,95402.80
2022-08-29T10:49:35.726Z,95400.89
2022-08-29T10:52:31.644Z,95406.88
2022-08-29T10:55:09.264Z,95403.77
2022-08-29T10:57:41.099Z,95406.00
2022-08-29T11:00:18.945Z,95399.38
2022-08-29T11:03:07.030Z,95400.34
2022-08-29T11:05:38.712Z,95400.48
2022-08-29T11:08:14.066Z,95397.16
2022-08-29T11:10:43.672Z,95399.53
2022-08-29T11:13:15.343Z,95395.80
2022-08-29T11:16:09.975Z,95388.94
2022-08-29T11:18:47.549Z,95376.27
2022-08-29T11:21:36.950Z,95367.62
2022-08-29T11:24:06.493Z,95370.74
2022-08-29T11:26:47.208Z,95361.52
2022-08-29T11:29:44.366Z,95361.44
2022-08-29T11:32:33.561Z,95350.84
2022-08-29T11:35:05.959Z,95355.41
2022-08-29T11:37:46.652Z,95350.13
2022-08-29T11:43:30.601Z,95349.41
2022-08-29T11:46:07.412Z,95348.89
2022-08-29T11:48:49.323Z,95341.41
2022-08-29T11:51:40.844Z,95342.90
2022-08-29T11:54:28.758Z,95335.77
2022-08-29T11:57:06.398Z,95335.89
2022-08-29T11:59:50.091Z,95332.84
2022-08-29T12:02:33.964Z,95333.86
2022-08-29T12:05:07.733Z,95334.73
2022-08-29T12:07:47.196Z,95329.34
2022-08-29T12:10:24.784Z,95333.69
2022-08-29T12:12:59.511Z,95326.46
2022-08-29T12:15:37.075Z,95332.30
2022-08-29T12:18:16.521Z,95332.39
2022-08-29T12:20:48.197Z,95335.31
2022-08-29T12:23:22.424Z,95339.52
2022-08-29T12:26:21.086Z,95334.66
2022-08-29T12:28:32.819Z,95338.23
2022-08-29T12:31:08.884Z,95343.71
2022-08-29T12:34:02.251Z,95342.86
2022-08-29T12:36:52.294Z,95339.36
2022-08-29T12:39:38.812Z,95335.99
2022-08-29T12:42:29.945Z,95261.37
2022-08-29T12:45:05.927Z,95335.41
2022-08-29T12:47:54.207Z,95333.75
2022-08-29T12:53:55.734Z,95337.60
2022-08-29T12:56:32.685Z,95349.73
2022-08-29T12:59:06.523Z,95346.30
2022-08-29T13:01:41.791Z,95348.81
2022-08-29T13:04:17.130Z,95352.06
2022-08-29T13:07:07.319Z,95354.82
2022-08-29T13:09:41.697Z,95348.95
2022-08-29T13:12:16.182Z,95353.48
2022-08-29T13:14:50.243Z,95360.50
2022-08-29T13:17:25.023Z,95364.62
2022-08-29T13:20:30.217Z,95368.16
2022-08-29T13:23:35.303Z,95377.84
2022-08-29T13:26:07.006Z,95368.58
2022-08-29T13:28:53.786Z,95372.64
2022-08-29T13:31:25.549Z,95371.14
2022-08-29T13:33:57.179Z,95367.29
2022-08-29T13:36:32.139Z,95368.96
2022-08-29T13:39:28.086Z,95376.08
2022-08-29T13:42:05.536Z,95380.14
2022-08-29T13:44:40.085Z,95381.56
2022-08-29T13:47:20.595Z,95380.55
2022-08-29T13:49:50.333Z,95374.78
2022-08-29T13:52:21.682Z,95368.05
2022-08-29T13:54:52.007Z,95369.38
2022-08-29T13:57:23.882Z,95380.50
2022-08-29T13:59:53.093Z,95385.13
2022-08-29T14:02:23.377Z,95391.67
2022-08-29T14:04:52.346Z,95397.88
2022-08-29T14:07:24.302Z,95409.82
2022-08-29T14:09:53.601Z,95422.23
2022-08-29T14:12:33.897Z,95424.16
2022-08-29T14:14:53.236Z,95434.70
2022-08-29T14:17:24.857Z,95434.30
2022-08-29T14:19:54.712Z,95445.20
2022-08-29T14:22:23.416Z,95454.94
2022-08-29T14:24:58.656Z,95463.59
2022-08-29T14:27:29.503Z,95456.74
2022-08-29T14:29:58.176Z,95453.14
2022-08-29T14:32:30.974Z,95459.94
2022-08-29T14:35:00.427Z,95463.73
2022-08-29T14:37:29.157Z,95467.69
2022-08-29T14:39:58.168Z,95462.38
2022-08-29T14:42:29.339Z,95463.09
2022-08-29T14:44:59.983Z,95464.03
2022-08-29T14:47:31.981Z,95449.89
2022-08-29T14:50:01.064Z,95452.08
2022-08-29T14:52:42.807Z,95457.07
2022-08-29T14:55:16.153Z,95456.94
2022-08-29T15:00:40.182Z,95451.36
2022-08-29T15:03:20.655Z,95450.14
2022-08-29T15:08:31.157Z,95445.77
2022-08-29T15:11:11.308Z,95443.21
2022-08-29T15:13:42.127Z,95444.95
2022-08-29T15:16:15.417Z,95440.40
2022-08-29T15:19:24.805Z,95440.98
2022-08-29T15:21:16.532Z,95436.27
2022-08-29T15:23:46.603Z,95434.03
2022-08-29T15:26:15.912Z,95432.20
2022-08-29T15:28:45.034Z,95435.85
2022-08-29T15:31:14.899Z,95435.66
2022-08-29T15:33:43.667Z,95438.62
2022-08-29T15:36:12.287Z,95442.83
2022-08-29T15:38:41.034Z,95444.38
2022-08-29T15:41:09.602Z,95435.69
2022-08-29T15:43:38.373Z,95435.94
2022-08-29T15:46:08.088Z,95431.38
2022-08-29T15:48:38.816Z,95429.80
2022-08-29T15:51:09.494Z,95430.68
2022-08-29T15:53:39.114Z,95429.05
2022-08-29T15:56:16.183Z,95432.50
2022-08-29T15:58:51.817Z,95432.98
2022-08-29T16:04:34.761Z,95415.16
2022-08-29T16:10:00.652Z,95413.64
2022-08-29T16:12:46.595Z,95420.03
2022-08-29T16:18:10.139Z,95419.79
2022-08-29T16:20:41.741Z,95417.33
2022-08-29T16:23:12.638Z,95424.50
2022-08-29T16:25:44.202Z,95421.78
2022-08-29T16:28:22.703Z,95426.25
2022-08-29T16:30:54.426Z,95426.09
2022-08-29T16:36:25.935Z,95414.78
2022-08-29T16:42:03.752Z,95412.27
2022-08-29T16:44:23.855Z,95412.46
2022-08-29T16:47:10.910Z,95412.52
2022-08-29T16:49:35.045Z,95413.16
2022-08-29T16:52:11.023Z,95407.08
2022-08-29T16:54:42.399Z,95408.48
2022-08-29T16:57:11.440Z,95400.32
2022-08-29T16:59:42.497Z,95398.81
2022-08-29T17:02:19.155Z,95395.19
2022-08-29T17:04:50.169Z,95386.23
2022-08-29T17:07:20.055Z,95381.95
2022-08-29T17:09:48.046Z,95384.52
2022-08-29T17:12:16.277Z,95387.39
2022-08-29T17:14:54.834Z,95381.09
2022-08-29T17:17:23.354Z,95384.50
2022-08-29T17:19:52.374Z,95378.95
2022-08-29T17:25:19.163Z,95386.81
2022-08-29T17:28:07.474Z,95390.73
2022-08-29T17:30:19.051Z,95399.59
2022-08-29T17:33:01.590Z,95402.16
2022-08-29T17:35:31.354Z,95408.56
2022-08-29T17:38:00.175Z,95407.15
2022-08-29T17:40:29.349Z,95416.77
2022-08-29T17:42:59.727Z,95412.34
2022-08-29T17:45:28.629Z,95411.74
2022-08-29T17:47:57.331Z,95414.75
2022-08-29T17:50:26.801Z,95413.77
2022-08-29T17:52:55.711Z,95413.77
2022-08-29T17:55:30.069Z,95411.06
2022-08-29T17:57:56.022Z,95410.84
2022-08-29T18:00:25.617Z,95410.56
2022-08-29T18:02:55.284Z,95410.84
2022-08-29T18:05:27.723Z,95410.53
2022-08-29T18:07:57.147Z,95410.70
2022-08-29T18:10:26.268Z,95421.24
2022-08-29T18:12:54.969Z,95426.33
2022-08-29T18:15:23.730Z,95431.12
2022-08-29T18:18:00.198Z,95429.61
2022-08-29T18:20:34.996Z,95420.73
2022-08-29T18:23:05.373Z,95432.73
2022-08-29T18:25:34.112Z,95426.00
2022-08-29T18:28:06.813Z,95431.20
2022-08-29T18:30:42.783Z,95433.70
2022-08-29T18:33:12.030Z,95434.11
2022-08-29T18:35:46.713Z,95432.62
2022-08-29T18:38:16.352Z,95364.73
2022-08-29T18:41:09.356Z,95441.42
2022-08-29T18:43:38.743Z,95442.08
2022-08-29T18:52:10.613Z,95443.30
2022-08-29T18:55:25.121Z,95447.70
2022-08-29T19:00:40.983Z,95455.28
2022-08-29T19:03:11.513Z,95455.72
2022-08-29T19:05:50.087Z,95453.53
2022-08-29T19:08:24.887Z,95452.69
2022-08-29T19:10:55.793Z,95458.11
2022-08-29T19:13:25.297Z,95456.59
2022-08-29T19:16:10.870Z,95456.08
2022-08-29T19:18:41.929Z,95450.55
2022-08-29T19:21:10.812Z,95462.16
2022-08-29T19:23:42.592Z,95457.05
2022-08-29T19:26:23.362Z,95459.44
2022-08-29T19:28:56.724Z,95454.80
2022-08-29T19:31:26.677Z,95455.34
2022-08-29T19:33:56.076Z,95455.15
2022-08-29T19:36:25.911Z,95462.53
2022-08-29T19:38:56.673Z,95464.30
2022-08-29T19:41:28.470Z,95462.69
2022-08-29T19:44:00.762Z,95470.52
2022-08-29T19:46:30.621Z,95476.55
2022-08-29T19:48:59.868Z,95473.75
2022-08-29T19:51:30.583Z,95473.89
2022-08-29T19:54:05.236Z,95475.81
2022-08-29T19:56:34.148Z,95481.48
2022-08-29T19:59:07.125Z,95477.49
2022-08-29T20:01:35.961Z,95476.34
2022-08-29T20:04:09.832Z,95475.53
2022-08-29T20:06:39.977Z,95472.79
2022-08-29T20:09:12.702Z,95470.23
2022-08-29T20:11:43.718Z,95467.48
2022-08-29T20:14:14.108Z,95470.75
2022-08-29T20:16:45.745Z,95475.50
2022-08-29T20:19:16.628Z,95470.96
2022-08-29T20:21:45.860Z,95468.08
2022-08-29T20:24:16.793Z,95474.02
2022-08-29T20:26:48.990Z,95476.92
2022-08-29T20:29:21.975Z,95480.16
2022-08-29T20:31:56.869Z,95474.24
2022-08-29T20:34:29.716Z,95470.09
2022-08-29T20:37:17.374Z,95483.89
2022-08-29T20:39:59.344Z,95490.56
2022-08-29T20:42:31.121Z,95488.09
2022-08-29T20:45:05.769Z,95493.84
2022-08-29T20:47:40.672Z,95494.69
2022-08-29T20:50:12.146Z,95496.55
2022-08-29T20:55:59.237Z,95507.10
2022-08-29T20:58:44.576Z,95438.73
2022-08-29T21:01:16.965Z,95509.13
2022-08-29T21:04:05.961Z,95510.16
2022-08-29T21:06:37.689Z,95501.16
2022-08-29T21:09:12.230Z,95513.73
2022-08-29T21:11:42.510Z,95509.84
2022-08-29T21:14:12.952Z,95514.95
2022-08-29T21:16:44.341Z,95508.59
2022-08-29T21:19:20.102Z,95512.57
2022-08-29T21:21:51.500Z,95516.65
2022-08-29T21:24:23.487Z,95510.34
2022-08-29T21:26:52.573Z,95514.08
2022-08-29T21:29:21.777Z,95506.63
2022-08-29T21:31:57.392Z,95516.53
2022-08-29T21:34:26.686Z,95513.58
2022-08-29T21:37:11.816Z,95511.87
2022-08-29T21:39:51.449Z,95433.50
2022-08-29T21:42:24.196Z,95506.14
2022-08-29T21:44:56.573Z,95507.66
2022-08-29T21:47:49.653Z,95506.30
2022-08-29T21:50:22.343Z,95503.92
2022-08-29T21:53:00.721Z,95486.81
2022-08-29T21:55:27.598Z,95499.52
2022-08-29T21:58:02.349Z,95493.09
2022-08-29T22:00:38.973Z,95504.59
2022-08-29T22:03:15.871Z,95505.78
2022-08-29T22:06:06.688Z,95497.80
2022-08-29T22:08:47.589Z,95500.09
2022-08-29T22:11:37.914Z,95486.19
2022-08-29T22:14:13.758Z,95485.62
2022-08-29T22:16:49.784Z,95483.27
2022-08-29T22:19:44.834Z,95477.16
2022-08-29T22:22:13.255Z,95484.94
2022-08-29T22:24:49.738Z,95495.77
2022-08-29T22:27:39.696Z,95494.36
2022-08-29T22:30:22.187Z,95497.75
2022-08-29T22:32:56.477Z,95496.27
2022-08-29T22:35:37.078Z,95501.02
2022-08-29T22:38:17.615Z,95508.12
2022-08-29T22:40:56.144Z,95515.75
2022-08-29T22:43:38.315Z,95517.70
2022-08-29T22:46:23.975Z,95512.89
2022-08-29T22:49:09.421Z,95511.54
2022-08-29T22:51:54.477Z,95512.72
2022-08-29T22:54:44.657Z,95517.45
2022-08-29T22:57:19.952Z,95518.31
2022-08-29T22:59:56.366Z,95512.11
2022-08-29T23:02:38.379Z,95510.63
2022-08-29T23:05:11.811Z,95518.70
2022-08-29T23:07:47.521Z,95520.48
2022-08-29T23:10:30.615Z,95527.27
2022-08-29T23:13:08.126Z,95527.97
2022-08-29T23:15:38.803Z,95525.50
2022-08-29T23:18:15.881Z,95531.34
2022-08-29T23:20:51.855Z,95513.06
2022-08-29T23:23:33.062Z,95528.65
2022-08-29T23:26:08.168Z,95528.92
2022-08-29T23:28:50.485Z,95530.09
2022-08-29T23:31:13.720Z,95526.34
2022-08-29T23:33:49.981Z,95532.53
2022-08-29T23:36:26.200Z,95529.81
2022-08-29T23:39:01.065Z,95535.19
2022-08-29T23:41:35.785Z,95535.03
2022-08-29T23:44:15.229Z,95532.48
2022-08-29T23:49:40.341Z,95530.47
2022-08-29T23:52:18.212Z,95532.31
2022-08-29T23:54:56.055Z,95530.79
2022-08-29T23:57:46.949Z,95533.16
